Drake Field
KFYV : now visible

Airfield :











YOU CAN JOIN US ON...

 
LOGIN :

Register | Disclaimer

   EN    FR    IT 

 









Legend :    VFR   Marginal VFR   IFR   Intensive IFR   Very Intensive IFR
Visi :
Ceiling :
>= 8 km
>= 3000ft
5 to 8 km
1000 to 3000 ft
1500m to 5 km
500 to 1000 ft
800 to 1500m
200 to 500 ft
< 800m
< 200 ft
Symbols :   Thunderstorms  Fog  Heavy snow  Heavy precipitations  Wind > 20 kt






- Airport Elevation : 1251 ft
- IATA code : FYV


KFYV - Drake Field

CURRENT METAR :
  • 080553Z AUTO 19003KT 10SM CLR 21/18 A2984 RMK AO2 SLP093 T02060183 10256 20200 402830183 53001

EXPIRED METARs :
  • 080453Z AUTO 20004KT 10SM CLR 21/18 A2984 RMK AO2 SLP090 T02110178
  • 080353Z AUTO 22004KT 10SM CLR 22/18 A2984 RMK AO2 SLP092 T02170178

TAF KFYV
Valid from the 08 at 06:00 until the 09 at 06:00 UTC


080520Z 0806/0906 20004KT P6SM SKC
TEMPO 0808/0812 3SM BR
FM081500 21005KT P6SM SCT250
FM082200 27009KT P6SM SCT050 BKN100
FM090300 33012G19KT P6SM BKN250



MET'MAP, your aeronautical weather chart ! - Copyright ORBIFLY December 2007 - Disclaimer

ORBIFLY MET'MAP TEAM :

Programming & Development : Alexandra Zaïnal
Concept & original design : Baudouin d'Aumeries
Assistance for programming : Marc-Olivier Méhu
Technical & hardware support : Manuel Goepfert

Contact : metmap@orbifly.com




SOURCES & CREDITS :

   NOAA       Earth
Advisory